createdAt,value
2022-11-25T00:00:07.232Z,992.27
2022-11-25T00:01:07.209Z,992.31
2022-11-25T00:02:07.292Z,992.26
2022-11-25T00:03:07.227Z,992.28
2022-11-25T00:04:07.152Z,992.30
2022-11-25T00:05:07.136Z,992.30
2022-11-25T00:06:07.112Z,992.30
2022-11-25T00:07:07.097Z,992.33
2022-11-25T00:08:07.071Z,992.32
2022-11-25T00:09:07.057Z,992.32
2022-11-25T00:10:07.038Z,992.30
2022-11-25T00:11:07.014Z,992.34
2022-11-25T00:12:06.995Z,992.29
2022-11-25T00:13:06.976Z,992.35
2022-11-25T00:14:06.953Z,992.33
2022-11-25T00:15:06.935Z,992.31
2022-11-25T00:16:06.958Z,992.36
2022-11-25T00:17:06.974Z,992.33
2022-11-25T00:18:06.877Z,992.33
2022-11-25T00:19:06.857Z,992.28
2022-11-25T00:20:06.838Z,992.30
2022-11-25T00:21:06.818Z,992.30
2022-11-25T00:22:06.802Z,992.30
2022-11-25T00:23:06.780Z,992.32
2022-11-25T00:24:06.756Z,992.32
2022-11-25T00:25:06.738Z,992.34
2022-11-25T00:26:06.718Z,992.30
2022-11-25T00:27:06.700Z,992.28
2022-11-25T00:28:06.678Z,992.32
2022-11-25T00:29:06.661Z,992.30
2022-11-25T00:30:06.639Z,992.28
2022-11-25T00:31:06.620Z,992.34
2022-11-25T00:32:06.637Z,992.26
2022-11-25T00:33:06.578Z,992.25
2022-11-25T00:34:06.559Z,992.23
2022-11-25T00:35:06.541Z,992.21
2022-11-25T00:36:06.520Z,992.18
2022-11-25T00:37:06.500Z,992.20
2022-11-25T00:38:06.481Z,992.21
2022-11-25T00:39:06.463Z,992.22
2022-11-25T00:40:06.443Z,992.18
2022-11-25T00:41:06.428Z,992.17
2022-11-25T00:42:06.408Z,992.20
2022-11-25T00:43:06.386Z,992.19
2022-11-25T00:44:06.363Z,992.17
2022-11-25T00:45:06.347Z,992.14
2022-11-25T00:46:06.403Z,992.15
2022-11-25T00:47:06.306Z,992.16
2022-11-25T00:48:06.285Z,992.14
2022-11-25T00:49:06.265Z,992.13
2022-11-25T00:50:06.250Z,992.11
2022-11-25T00:51:06.238Z,992.14
2022-11-25T00:52:06.206Z,992.12
2022-11-25T00:53:06.198Z,992.12
2022-11-25T00:54:06.168Z,992.09
2022-11-25T00:55:06.153Z,992.11
2022-11-25T00:56:06.129Z,992.08
2022-11-25T00:57:06.110Z,992.10
2022-11-25T00:58:06.093Z,992.09
2022-11-25T00:59:06.083Z,992.13
2022-11-25T01:00:06.049Z,992.07
2022-11-25T01:01:06.110Z,992.09
2022-11-25T01:02:06.072Z,992.03
2022-11-25T01:03:05.997Z,992.08
2022-11-25T01:04:05.970Z,992.03
2022-11-25T01:05:05.956Z,992.04
2022-11-25T01:06:05.933Z,992.04
2022-11-25T01:07:05.917Z,992.08
2022-11-25T01:08:05.892Z,992.07
2022-11-25T01:09:05.876Z,992.06
2022-11-25T01:10:05.862Z,992.09
2022-11-25T01:11:05.841Z,992.10
2022-11-25T01:12:05.817Z,992.09
2022-11-25T01:13:05.798Z,992.08
2022-11-25T01:14:05.779Z,992.12
2022-11-25T01:15:05.761Z,992.10
2022-11-25T01:16:05.772Z,992.13
2022-11-25T01:17:05.719Z,992.17
2022-11-25T01:18:05.701Z,992.17
2022-11-25T01:19:05.682Z,992.16
2022-11-25T01:20:05.660Z,992.15
2022-11-25T01:21:05.644Z,992.19
2022-11-25T01:22:05.620Z,992.22
2022-11-25T01:23:05.604Z,992.18
2022-11-25T01:24:05.584Z,992.21
2022-11-25T01:25:05.566Z,992.17
2022-11-25T01:26:05.542Z,992.22
2022-11-25T01:27:05.524Z,992.20
2022-11-25T01:28:05.511Z,992.23
2022-11-25T01:29:05.513Z,992.20
2022-11-25T01:30:05.481Z,992.23
2022-11-25T01:31:05.447Z,992.24
2022-11-25T01:32:05.468Z,992.22
2022-11-25T01:33:05.412Z,992.23
2022-11-25T01:34:05.388Z,992.27
2022-11-25T01:35:05.368Z,992.21
2022-11-25T01:36:05.351Z,992.24
2022-11-25T01:37:05.329Z,992.25
2022-11-25T01:38:05.308Z,992.24
2022-11-25T01:39:05.302Z,992.21
2022-11-25T01:40:05.268Z,992.20
2022-11-25T01:41:05.251Z,992.21
2022-11-25T01:42:05.231Z,992.21
2022-11-25T01:43:05.213Z,992.21
2022-11-25T01:44:05.202Z,992.20
2022-11-25T01:45:05.174Z,992.19
2022-11-25T01:46:05.190Z,992.18
2022-11-25T01:47:05.140Z,992.15
2022-11-25T01:48:05.114Z,992.14
2022-11-25T01:49:05.097Z,992.18
2022-11-25T01:50:05.199Z,992.17
2022-11-25T01:51:05.061Z,992.15
2022-11-25T01:52:05.036Z,992.17
2022-11-25T01:53:05.017Z,992.16
2022-11-25T01:54:05.002Z,992.18
2022-11-25T01:55:04.981Z,992.17
2022-11-25T01:56:04.958Z,992.14
2022-11-25T01:57:04.942Z,992.14
2022-11-25T01:58:04.918Z,992.18
2022-11-25T01:59:04.902Z,992.18
2022-11-25T02:00:04.880Z,992.19
2022-11-25T02:01:04.946Z,992.21
2022-11-25T02:02:04.906Z,992.22
2022-11-25T02:03:04.829Z,992.19
2022-11-25T02:04:04.801Z,992.19
2022-11-25T02:05:04.787Z,992.17
2022-11-25T02:06:04.767Z,992.19
2022-11-25T02:07:04.748Z,992.22
2022-11-25T02:08:04.733Z,992.21
2022-11-25T02:09:04.708Z,992.20
2022-11-25T02:10:04.981Z,992.25
2022-11-25T02:11:04.682Z,992.21
2022-11-25T02:12:04.658Z,992.24
2022-11-25T02:13:04.631Z,992.23
2022-11-25T02:14:04.612Z,992.25
2022-11-25T02:15:04.595Z,992.24
2022-11-25T02:16:04.606Z,992.19
2022-11-25T02:17:04.556Z,992.19
2022-11-25T02:18:04.554Z,992.19
2022-11-25T02:19:04.518Z,992.17
2022-11-25T02:20:04.497Z,992.19
2022-11-25T02:21:04.478Z,992.19
2022-11-25T02:22:04.462Z,992.14
2022-11-25T02:23:04.438Z,992.11
2022-11-25T02:24:04.417Z,992.13
2022-11-25T02:25:04.400Z,992.13
2022-11-25T02:26:04.385Z,992.14
2022-11-25T02:27:04.363Z,992.15
2022-11-25T02:28:04.342Z,992.17
2022-11-25T02:29:04.327Z,992.18
2022-11-25T02:30:04.304Z,992.19
2022-11-25T02:31:04.299Z,992.17
2022-11-25T02:32:04.333Z,992.18
2022-11-25T02:33:04.247Z,992.19
2022-11-25T02:34:04.230Z,992.20
2022-11-25T02:35:04.212Z,992.22
2022-11-25T02:36:04.192Z,992.19
2022-11-25T02:37:04.171Z,992.23
2022-11-25T02:38:04.156Z,992.25
2022-11-25T02:39:04.137Z,992.29
2022-11-25T02:40:04.113Z,992.25
2022-11-25T02:41:04.096Z,992.25
2022-11-25T02:42:04.078Z,992.25
2022-11-25T02:43:04.059Z,992.18
2022-11-25T02:44:04.040Z,992.25
2022-11-25T02:45:04.025Z,992.23
2022-11-25T02:46:04.051Z,992.22
2022-11-25T02:47:03.982Z,992.23
2022-11-25T02:48:03.963Z,992.21
2022-11-25T02:49:11.401Z,992.17
2022-11-25T02:50:03.924Z,992.16
2022-11-25T02:51:03.908Z,992.18
2022-11-25T02:52:03.885Z,992.15
2022-11-25T02:53:03.868Z,992.20
2022-11-25T02:54:03.849Z,992.20
2022-11-25T02:55:03.830Z,992.20
2022-11-25T02:56:03.809Z,992.16
2022-11-25T02:57:03.790Z,992.21
2022-11-25T02:58:03.773Z,992.18
2022-11-25T02:59:03.753Z,992.19
2022-11-25T03:00:03.734Z,992.18
2022-11-25T03:01:03.753Z,992.17
2022-11-25T03:02:03.731Z,992.22
2022-11-25T03:03:03.676Z,992.19
2022-11-25T03:04:03.653Z,992.15
2022-11-25T03:05:03.642Z,992.20
2022-11-25T03:06:03.621Z,992.17
2022-11-25T03:07:03.599Z,992.15
2022-11-25T03:08:03.574Z,992.16
2022-11-25T03:09:03.559Z,992.12
2022-11-25T03:10:03.538Z,992.07
2022-11-25T03:11:03.521Z,992.12
2022-11-25T03:12:03.496Z,992.16
2022-11-25T03:13:03.480Z,992.12
2022-11-25T03:14:03.459Z,992.12
2022-11-25T03:15:03.441Z,992.14
2022-11-25T03:16:03.521Z,992.19
2022-11-25T03:17:03.400Z,992.15
2022-11-25T03:18:03.382Z,992.12
2022-11-25T03:19:03.362Z,992.20
2022-11-25T03:20:03.343Z,992.15
2022-11-25T03:21:03.323Z,992.19
2022-11-25T03:22:03.301Z,992.18
2022-11-25T03:23:03.281Z,992.21
2022-11-25T03:24:03.261Z,992.25
2022-11-25T03:25:03.243Z,992.19
2022-11-25T03:26:03.221Z,992.19
2022-11-25T03:27:03.202Z,992.25
2022-11-25T03:28:03.181Z,992.27
2022-11-25T03:29:03.165Z,992.21
2022-11-25T03:30:03.147Z,992.21
2022-11-25T03:31:03.148Z,992.17
2022-11-25T03:32:06.784Z,992.18
2022-11-25T03:33:03.083Z,992.17
2022-11-25T03:34:03.062Z,992.12
2022-11-25T03:35:03.044Z,992.12
2022-11-25T03:36:03.021Z,992.07
2022-11-25T03:37:03.057Z,992.04
2022-11-25T03:38:02.981Z,992.05
2022-11-25T03:39:02.964Z,991.97
2022-11-25T03:40:02.942Z,991.97
2022-11-25T03:41:02.922Z,991.96
2022-11-25T03:42:02.909Z,991.91
2022-11-25T03:43:02.884Z,991.94
2022-11-25T03:44:02.875Z,991.95
2022-11-25T03:45:02.846Z,991.93
2022-11-25T03:46:02.901Z,991.94
2022-11-25T03:47:02.803Z,991.93
2022-11-25T03:48:02.790Z,991.95
2022-11-25T03:49:02.765Z,991.94
2022-11-25T03:50:02.746Z,991.93
2022-11-25T03:51:02.727Z,991.95
2022-11-25T03:52:02.699Z,991.96
2022-11-25T03:53:02.693Z,991.89
2022-11-25T03:54:02.667Z,991.90
2022-11-25T03:55:02.644Z,991.93
2022-11-25T03:56:02.622Z,991.95
2022-11-25T03:57:02.604Z,991.90
2022-11-25T03:58:02.582Z,991.93
2022-11-25T03:59:02.564Z,991.92
2022-11-25T04:00:02.542Z,991.92
2022-11-25T04:01:02.560Z,991.95
2022-11-25T04:02:02.529Z,991.96
2022-11-25T04:03:02.484Z,991.94
2022-11-25T04:04:02.461Z,991.95
2022-11-25T04:05:02.442Z,991.93
2022-11-25T04:06:02.424Z,991.89
2022-11-25T04:07:02.405Z,991.88
2022-11-25T04:08:02.401Z,991.89
2022-11-25T04:09:02.366Z,991.90
2022-11-25T04:10:02.346Z,991.87
2022-11-25T04:11:02.321Z,991.86
2022-11-25T04:12:02.301Z,991.88
2022-11-25T04:13:02.281Z,991.86
2022-11-25T04:14:02.261Z,991.88
2022-11-25T04:15:02.242Z,991.89
2022-11-25T04:16:02.219Z,991.90
2022-11-25T04:17:02.268Z,991.90
2022-11-25T04:18:02.185Z,991.89
2022-11-25T04:19:02.164Z,991.88
2022-11-25T04:20:02.143Z,991.90
2022-11-25T04:21:02.123Z,991.91
2022-11-25T04:22:02.102Z,991.87
2022-11-25T04:23:02.083Z,991.90
2022-11-25T04:24:02.062Z,991.87
2022-11-25T04:25:02.041Z,991.85
2022-11-25T04:26:02.024Z,991.82
2022-11-25T04:27:02.002Z,991.83
2022-11-25T04:28:01.985Z,991.80
2022-11-25T04:29:01.961Z,991.82
2022-11-25T04:30:01.952Z,991.85
2022-11-25T04:31:01.951Z,991.84
2022-11-25T04:32:01.904Z,991.85
2022-11-25T04:33:01.884Z,991.84
2022-11-25T04:34:01.864Z,991.89
2022-11-25T04:35:01.844Z,991.90
2022-11-25T04:36:01.826Z,991.90
2022-11-25T04:37:01.802Z,991.90
2022-11-25T04:38:01.783Z,991.95
2022-11-25T04:39:01.762Z,991.98
2022-11-25T04:40:01.746Z,991.98
2022-11-25T04:41:01.729Z,992.03
2022-11-25T04:42:01.707Z,991.98
2022-11-25T04:43:07.493Z,992.02
2022-11-25T04:44:01.664Z,992.03
2022-11-25T04:45:22.084Z,992.01
2022-11-25T04:46:17.188Z,992.00
2022-11-25T04:47:01.665Z,992.03
2022-11-25T04:48:01.590Z,991.98
2022-11-25T04:49:01.566Z,992.00
2022-11-25T04:50:01.548Z,992.01
2022-11-25T04:51:01.538Z,992.06
2022-11-25T04:52:01.581Z,992.03
2022-11-25T04:53:01.493Z,992.04
2022-11-25T04:54:01.472Z,992.08
2022-11-25T04:55:01.457Z,992.09
2022-11-25T04:56:01.431Z,992.11
2022-11-25T04:57:01.409Z,992.10
2022-11-25T04:58:01.491Z,992.13
2022-11-25T04:59:01.384Z,992.11
2022-11-25T05:00:01.356Z,992.13
2022-11-25T05:01:01.386Z,992.11
2022-11-25T05:02:01.343Z,992.09
2022-11-25T05:03:01.293Z,992.05
2022-11-25T05:04:01.283Z,992.06
2022-11-25T05:05:01.272Z,992.05
2022-11-25T05:06:01.232Z,991.99
2022-11-25T05:07:01.216Z,991.97
2022-11-25T05:08:01.193Z,991.96
2022-11-25T05:09:01.178Z,991.96
2022-11-25T05:10:01.158Z,991.96
2022-11-25T05:11:01.137Z,991.91
2022-11-25T05:12:01.118Z,991.93
2022-11-25T05:13:01.099Z,991.95
2022-11-25T05:14:01.081Z,991.96
2022-11-25T05:15:01.057Z,991.91
2022-11-25T05:16:01.039Z,991.93
2022-11-25T05:17:01.071Z,991.90
2022-11-25T05:18:00.998Z,991.90
2022-11-25T05:19:00.978Z,991.89
2022-11-25T05:20:00.957Z,991.88
2022-11-25T05:21:00.942Z,991.87
2022-11-25T05:22:00.923Z,991.81
2022-11-25T05:23:00.899Z,991.79
2022-11-25T05:24:00.880Z,991.80
2022-11-25T05:25:00.871Z,991.79
2022-11-25T05:26:00.843Z,991.80
2022-11-25T05:27:00.821Z,991.81
2022-11-25T05:28:00.804Z,991.77
2022-11-25T05:29:00.780Z,991.77
2022-11-25T05:30:00.782Z,991.82
2022-11-25T05:31:00.783Z,991.75
2022-11-25T05:32:00.724Z,991.79
2022-11-25T05:33:00.706Z,991.84
2022-11-25T05:34:00.683Z,991.84
2022-11-25T05:35:00.675Z,991.90
2022-11-25T05:36:00.649Z,991.86
2022-11-25T05:37:00.626Z,991.84
2022-11-25T05:38:00.617Z,991.82
2022-11-25T05:39:00.583Z,991.81
2022-11-25T05:40:00.607Z,991.78
2022-11-25T05:41:00.547Z,991.76
2022-11-25T05:42:00.528Z,991.78
2022-11-25T05:43:00.508Z,991.82
2022-11-25T05:44:00.489Z,991.84
2022-11-25T05:45:00.465Z,991.83
2022-11-25T05:46:00.496Z,991.85
2022-11-25T05:47:00.429Z,991.84
2022-11-25T05:48:00.408Z,991.87
2022-11-25T05:49:00.387Z,991.87
2022-11-25T05:50:00.368Z,991.91
2022-11-25T05:51:00.347Z,991.89
2022-11-25T05:52:00.327Z,991.92
2022-11-25T05:53:00.320Z,991.93
2022-11-25T05:54:00.291Z,991.92
2022-11-25T05:55:00.272Z,991.98
2022-11-25T05:56:00.249Z,992.00
2022-11-25T05:57:00.232Z,992.01
2022-11-25T05:58:00.217Z,992.02
2022-11-25T05:59:00.191Z,992.01
2022-11-25T06:00:00.187Z,992.04
2022-11-25T06:01:00.175Z,992.07
2022-11-25T06:02:00.249Z,992.07
2022-11-25T06:03:00.286Z,992.08
2022-11-25T06:04:00.096Z,992.12
2022-11-25T06:05:00.078Z,992.14
2022-11-25T06:06:00.054Z,992.15
2022-11-25T06:07:00.031Z,992.20
2022-11-25T06:08:00.099Z,992.17
2022-11-25T06:08:59.989Z,992.15
2022-11-25T06:10:03.127Z,992.19
2022-11-25T06:10:59.952Z,992.23
2022-11-25T06:11:59.932Z,992.19
2022-11-25T06:12:59.915Z,992.15
2022-11-25T06:13:59.898Z,992.19
2022-11-25T06:14:59.877Z,992.17
2022-11-25T06:16:06.281Z,992.21
2022-11-25T06:16:59.832Z,992.23
2022-11-25T06:17:59.814Z,992.19
2022-11-25T06:18:59.792Z,992.20
2022-11-25T06:19:59.773Z,992.20
2022-11-25T06:20:59.749Z,992.15
2022-11-25T06:21:59.736Z,992.17
2022-11-25T06:22:59.714Z,992.13
2022-11-25T06:23:59.692Z,992.11
2022-11-25T06:25:03.653Z,992.11
2022-11-25T06:25:59.654Z,992.15
2022-11-25T06:26:59.633Z,992.10
2022-11-25T06:28:14.985Z,992.19
2022-11-25T06:28:59.590Z,992.22
2022-11-25T06:29:59.574Z,992.27
2022-11-25T06:30:59.574Z,992.31
2022-11-25T06:31:59.534Z,992.33
2022-11-25T06:32:59.512Z,992.34
2022-11-25T06:33:59.501Z,992.37
2022-11-25T06:34:59.471Z,992.40
2022-11-25T06:35:59.455Z,992.41
2022-11-25T06:36:59.433Z,992.45
2022-11-25T06:37:59.415Z,992.49
2022-11-25T06:38:59.395Z,992.49
2022-11-25T06:39:59.373Z,992.51
2022-11-25T06:41:00.493Z,992.52
2022-11-25T06:41:59.333Z,992.53
2022-11-25T06:42:59.314Z,992.57
2022-11-25T06:43:59.293Z,992.55
2022-11-25T06:44:59.274Z,992.56
2022-11-25T06:45:59.302Z,992.55
2022-11-25T06:46:59.271Z,992.53
2022-11-25T06:47:59.216Z,992.56
2022-11-25T06:48:59.196Z,992.56
2022-11-25T06:49:59.180Z,992.57
2022-11-25T06:50:59.156Z,992.56
2022-11-25T06:51:59.141Z,992.59
2022-11-25T06:52:59.118Z,992.58
2022-11-25T06:53:59.100Z,992.57
2022-11-25T06:54:59.079Z,992.57
2022-11-25T06:55:59.061Z,992.57
2022-11-25T06:56:59.040Z,992.60
2022-11-25T06:58:13.816Z,992.61
2022-11-25T06:58:59.002Z,992.59
2022-11-25T06:59:58.981Z,992.66
2022-11-25T07:00:58.962Z,992.66
2022-11-25T07:01:59.002Z,992.63
2022-11-25T07:02:58.986Z,992.68
2022-11-25T07:03:58.914Z,992.73
2022-11-25T07:04:58.886Z,992.69
2022-11-25T07:05:58.870Z,992.75
2022-11-25T07:06:58.847Z,992.77
2022-11-25T07:07:58.894Z,992.78
2022-11-25T07:08:58.805Z,992.79
2022-11-25T07:09:58.789Z,992.79
2022-11-25T07:10:58.767Z,992.82
2022-11-25T07:11:58.748Z,992.79
2022-11-25T07:12:58.729Z,992.82
2022-11-25T07:13:58.715Z,992.80
2022-11-25T07:14:58.694Z,992.82
2022-11-25T07:15:58.705Z,992.84
2022-11-25T07:16:58.773Z,992.84
2022-11-25T07:17:58.634Z,992.86
2022-11-25T07:18:58.615Z,992.83
2022-11-25T07:19:58.595Z,992.89
2022-11-25T07:20:58.573Z,992.86
2022-11-25T07:21:58.675Z,992.91
2022-11-25T07:22:58.537Z,992.88
2022-11-25T07:23:58.562Z,992.85
2022-11-25T07:24:58.497Z,992.88
2022-11-25T07:25:58.479Z,992.86
2022-11-25T07:26:58.497Z,992.89
2022-11-25T07:27:58.440Z,992.96
2022-11-25T07:28:58.441Z,992.94
2022-11-25T07:30:41.119Z,992.94
2022-11-25T07:31:58.360Z,992.94
2022-11-25T07:32:58.409Z,992.99
2022-11-25T07:33:58.327Z,992.99
2022-11-25T07:34:58.305Z,992.98
2022-11-25T07:35:58.285Z,993.05
2022-11-25T07:36:58.266Z,993.05
2022-11-25T07:37:58.255Z,993.05
2022-11-25T07:38:58.231Z,993.05
2022-11-25T07:39:58.210Z,993.05
2022-11-25T07:40:58.191Z,993.06
2022-11-25T07:41:58.176Z,993.04
2022-11-25T07:42:58.153Z,993.07
2022-11-25T07:43:58.137Z,993.04
2022-11-25T07:44:58.114Z,993.08
2022-11-25T07:45:58.134Z,993.07
2022-11-25T07:46:58.253Z,993.07
2022-11-25T07:47:58.057Z,993.05
2022-11-25T07:48:58.037Z,993.04
2022-11-25T07:49:58.023Z,993.09
2022-11-25T07:50:57.999Z,993.08
2022-11-25T07:51:57.982Z,993.14
2022-11-25T07:52:57.962Z,993.09
2022-11-25T07:53:57.949Z,993.14
2022-11-25T07:54:57.924Z,993.09
2022-11-25T07:55:57.908Z,993.05
2022-11-25T07:56:57.884Z,993.06
2022-11-25T07:57:57.868Z,993.08
2022-11-25T07:58:57.854Z,993.03
2022-11-25T07:59:57.837Z,993.06
2022-11-25T08:00:57.811Z,993.06
2022-11-25T08:01:57.876Z,993.03
2022-11-25T08:02:57.863Z,993.10
2022-11-25T08:03:57.754Z,993.07
2022-11-25T08:04:57.736Z,993.06
2022-11-25T08:05:57.718Z,993.10
2022-11-25T08:06:57.697Z,993.05
2022-11-25T08:07:57.720Z,993.07
2022-11-25T08:08:57.659Z,993.03
2022-11-25T08:09:57.643Z,993.05
2022-11-25T08:10:57.620Z,993.03
2022-11-25T08:11:57.602Z,993.08
2022-11-25T08:12:57.582Z,993.05
2022-11-25T08:13:57.563Z,993.13
2022-11-25T08:14:57.544Z,993.06
2022-11-25T08:15:57.612Z,993.09
2022-11-25T08:16:57.505Z,993.10
2022-11-25T08:17:57.593Z,993.15
2022-11-25T08:18:57.468Z,993.14
2022-11-25T08:19:57.453Z,993.19
2022-11-25T08:20:57.429Z,993.17
2022-11-25T08:21:57.412Z,993.18
2022-11-25T08:22:57.391Z,993.18
2022-11-25T08:23:57.378Z,993.20
2022-11-25T08:24:57.353Z,993.26
2022-11-25T08:25:57.337Z,993.26
2022-11-25T08:26:57.317Z,993.26
2022-11-25T08:27:57.297Z,993.28
2022-11-25T08:28:57.275Z,993.24
2022-11-25T08:29:57.267Z,993.25
2022-11-25T08:30:57.258Z,993.24
2022-11-25T08:31:57.221Z,993.22
2022-11-25T08:32:57.202Z,993.29
2022-11-25T08:33:57.184Z,993.25
2022-11-25T08:34:57.166Z,993.26
2022-11-25T08:35:57.145Z,993.24
2022-11-25T08:36:57.128Z,993.22
2022-11-25T08:37:57.108Z,993.22
2022-11-25T08:38:57.092Z,993.21
2022-11-25T08:39:57.469Z,993.22
2022-11-25T08:40:57.050Z,993.21
2022-11-25T08:41:57.040Z,993.20
2022-11-25T08:42:57.014Z,993.23
2022-11-25T08:43:56.993Z,993.21
2022-11-25T08:44:56.977Z,993.23
2022-11-25T08:45:56.990Z,993.25
2022-11-25T08:46:56.996Z,993.25
2022-11-25T08:47:56.920Z,993.26
2022-11-25T08:48:56.901Z,993.22
2022-11-25T08:49:56.880Z,993.23
2022-11-25T08:50:56.865Z,993.25
2022-11-25T08:51:56.842Z,993.22
2022-11-25T08:52:56.830Z,993.25
2022-11-25T08:53:56.812Z,993.30
2022-11-25T08:54:56.790Z,993.28
2022-11-25T08:55:56.769Z,993.29
2022-11-25T08:56:56.753Z,993.34
2022-11-25T08:57:56.732Z,993.30
2022-11-25T08:58:56.717Z,993.32
2022-11-25T08:59:56.689Z,993.34
2022-11-25T09:00:56.680Z,993.36
2022-11-25T09:01:56.738Z,993.34
2022-11-25T09:02:56.720Z,993.35
2022-11-25T09:03:56.618Z,993.35
2022-11-25T09:04:56.602Z,993.39
2022-11-25T09:05:56.579Z,993.37
2022-11-25T09:06:56.562Z,993.41
2022-11-25T09:07:56.600Z,993.37
2022-11-25T09:08:56.528Z,993.36
2022-11-25T09:09:56.503Z,993.40
2022-11-25T09:10:56.541Z,993.40
2022-11-25T09:11:56.467Z,993.43
2022-11-25T09:12:56.450Z,993.41
2022-11-25T09:13:56.557Z,993.38
2022-11-25T09:14:56.414Z,993.33
2022-11-25T09:15:56.456Z,993.37
2022-11-25T09:16:56.374Z,993.36
2022-11-25T09:17:56.355Z,993.33
2022-11-25T09:18:56.609Z,993.35
2022-11-25T09:19:56.353Z,993.38
2022-11-25T09:20:56.299Z,993.42
2022-11-25T09:21:56.282Z,993.45
2022-11-25T09:22:56.265Z,993.46
2022-11-25T09:23:56.241Z,993.45
2022-11-25T09:24:56.227Z,993.51
2022-11-25T09:25:56.207Z,993.48
2022-11-25T09:26:56.190Z,993.51
2022-11-25T09:27:56.172Z,993.55
2022-11-25T09:28:56.150Z,993.56
2022-11-25T09:29:56.139Z,993.59
2022-11-25T09:30:56.188Z,993.60
2022-11-25T09:31:56.122Z,993.58
2022-11-25T09:32:56.084Z,993.65
2022-11-25T09:33:56.059Z,993.70
2022-11-25T09:34:56.040Z,993.68
2022-11-25T09:35:56.020Z,993.67
2022-11-25T09:36:56.003Z,993.72
2022-11-25T09:37:55.983Z,993.68
2022-11-25T09:38:55.973Z,993.67
2022-11-25T09:39:55.944Z,993.68
2022-11-25T09:40:55.931Z,993.73
2022-11-25T09:41:55.909Z,993.73
2022-11-25T09:42:55.892Z,993.80
2022-11-25T09:43:55.876Z,993.82
2022-11-25T09:44:55.854Z,993.82
2022-11-25T09:45:55.839Z,993.83
2022-11-25T09:46:55.896Z,993.83
2022-11-25T09:47:57.858Z,993.87
2022-11-25T09:48:55.779Z,993.89
2022-11-25T09:49:55.761Z,993.90
2022-11-25T09:50:55.750Z,993.96
2022-11-25T09:51:55.722Z,993.90
2022-11-25T09:52:55.706Z,993.90
2022-11-25T09:53:55.686Z,994.00
2022-11-25T09:54:55.669Z,994.03
2022-11-25T09:56:01.152Z,994.02
2022-11-25T09:56:55.633Z,994.04
2022-11-25T09:57:59.443Z,994.00
2022-11-25T09:58:55.598Z,994.05
2022-11-25T09:59:55.621Z,994.06
2022-11-25T10:00:55.574Z,994.06
2022-11-25T10:01:55.560Z,994.09
2022-11-25T10:02:55.625Z,994.12
2022-11-25T10:03:55.501Z,994.10
2022-11-25T10:04:55.486Z,994.12
2022-11-25T10:05:55.463Z,994.12
2022-11-25T10:06:55.812Z,994.12
2022-11-25T10:07:55.430Z,994.09
2022-11-25T10:08:55.410Z,994.11
2022-11-25T10:09:55.395Z,994.15
2022-11-25T10:10:55.377Z,994.16
2022-11-25T10:11:55.354Z,994.14
2022-11-25T10:12:55.337Z,994.17
2022-11-25T10:13:55.316Z,994.15
2022-11-25T10:14:55.300Z,994.17
2022-11-25T10:15:55.326Z,994.22
2022-11-25T10:16:55.667Z,994.22
2022-11-25T10:17:55.243Z,994.23
2022-11-25T10:18:55.225Z,994.27
2022-11-25T10:19:55.206Z,994.30
2022-11-25T10:20:55.189Z,994.30
2022-11-25T10:21:55.166Z,994.30
2022-11-25T10:22:55.154Z,994.34
2022-11-25T10:23:55.131Z,994.37
2022-11-25T10:24:55.111Z,994.35
2022-11-25T10:25:55.092Z,994.34
2022-11-25T10:26:55.077Z,994.33
2022-11-25T10:27:55.059Z,994.36
2022-11-25T10:28:55.038Z,994.39
2022-11-25T10:29:55.019Z,994.41
2022-11-25T10:30:55.021Z,994.40
2022-11-25T10:31:55.036Z,994.37
2022-11-25T10:33:00.791Z,994.42
2022-11-25T10:33:54.948Z,994.40
2022-11-25T10:34:54.929Z,994.44
2022-11-25T10:35:54.905Z,994.38
2022-11-25T10:36:54.891Z,994.42
2022-11-25T10:37:54.869Z,994.43
2022-11-25T10:38:54.855Z,994.39
2022-11-25T10:39:54.832Z,994.42
2022-11-25T10:40:54.812Z,994.42
2022-11-25T10:41:54.797Z,994.37
2022-11-25T10:42:54.778Z,994.39
2022-11-25T10:43:54.757Z,994.38
2022-11-25T10:44:54.781Z,994.43
2022-11-25T10:45:54.724Z,994.40
2022-11-25T10:47:13.613Z,994.41
2022-11-25T10:47:54.727Z,994.44
2022-11-25T10:48:54.666Z,994.39
2022-11-25T10:49:54.649Z,994.40
2022-11-25T10:50:54.649Z,994.37
2022-11-25T10:51:54.624Z,994.36
2022-11-25T10:52:54.597Z,994.41
2022-11-25T10:53:54.574Z,994.34
2022-11-25T10:54:54.556Z,994.32
2022-11-25T10:55:54.539Z,994.36
2022-11-25T10:56:54.518Z,994.36
2022-11-25T10:57:54.499Z,994.35
2022-11-25T10:58:54.486Z,994.37
2022-11-25T10:59:54.467Z,994.38
2022-11-25T11:00:54.444Z,994.40
2022-11-25T11:01:54.493Z,994.41
2022-11-25T11:02:54.464Z,994.41
2022-11-25T11:03:54.389Z,994.39
2022-11-25T11:04:54.371Z,994.40
2022-11-25T11:05:54.368Z,994.41
2022-11-25T11:06:54.335Z,994.34
2022-11-25T11:07:54.373Z,994.33
2022-11-25T11:08:54.298Z,994.36
2022-11-25T11:09:54.278Z,994.34
2022-11-25T11:10:57.276Z,994.39
2022-11-25T11:11:54.241Z,994.39
2022-11-25T11:12:54.224Z,994.36
2022-11-25T11:13:54.210Z,994.38
2022-11-25T11:14:54.195Z,994.39
2022-11-25T11:15:54.218Z,994.38
2022-11-25T11:16:54.152Z,994.39
2022-11-25T11:17:54.133Z,994.40
2022-11-25T11:18:54.117Z,994.39
2022-11-25T11:19:54.097Z,994.45
2022-11-25T11:20:54.082Z,994.44
2022-11-25T11:21:54.063Z,994.42
2022-11-25T11:22:54.042Z,994.44
2022-11-25T11:23:54.024Z,994.48
2022-11-25T11:24:54.007Z,994.50
2022-11-25T11:25:54.000Z,994.51
2022-11-25T11:26:53.979Z,994.56
2022-11-25T11:27:53.950Z,994.56
2022-11-25T11:28:53.934Z,994.58
2022-11-25T11:29:53.916Z,994.64
2022-11-25T11:30:53.974Z,994.66
2022-11-25T11:31:53.885Z,994.61
2022-11-25T11:32:53.862Z,994.62
2022-11-25T11:33:53.843Z,994.57
2022-11-25T11:34:53.828Z,994.63
2022-11-25T11:35:53.807Z,994.63
2022-11-25T11:36:53.793Z,994.62
2022-11-25T11:37:53.774Z,994.59
2022-11-25T11:38:53.755Z,994.59
2022-11-25T11:39:53.737Z,994.66
2022-11-25T11:40:53.723Z,994.59
2022-11-25T11:41:53.707Z,994.59
2022-11-25T11:42:53.696Z,994.61
2022-11-25T11:43:53.668Z,994.61
2022-11-25T11:44:53.648Z,994.63
2022-11-25T11:45:53.629Z,994.69
2022-11-25T11:46:53.733Z,994.69
2022-11-25T11:47:53.593Z,994.69
2022-11-25T11:48:53.763Z,994.65
2022-11-25T11:49:53.559Z,994.70
2022-11-25T11:50:53.547Z,994.67
2022-11-25T11:52:01.208Z,994.70
2022-11-25T11:53:57.512Z,994.65
2022-11-25T11:54:57.454Z,994.66
2022-11-25T11:57:01.495Z,994.62
2022-11-25T11:58:01.472Z,994.68
2022-11-25T12:00:05.451Z,994.67
2022-11-25T12:01:05.399Z,994.69
2022-11-25T12:02:58.372Z,994.75
2022-11-25T12:03:58.242Z,994.72
2022-11-25T12:06:02.210Z,994.74
2022-11-25T12:07:02.171Z,994.78
2022-11-25T12:09:06.112Z,994.82
2022-11-25T12:10:06.076Z,994.85
2022-11-25T12:12:10.021Z,994.89
2022-11-25T12:13:10.000Z,994.86
2022-11-25T12:15:13.965Z,994.92
2022-11-25T12:16:13.987Z,994.95
2022-11-25T12:18:17.893Z,994.93
2022-11-25T12:19:17.858Z,994.93
2022-11-25T12:21:21.840Z,995.00
2022-11-25T12:22:21.785Z,994.98
2022-11-25T12:24:25.762Z,995.03
2022-11-25T12:25:25.711Z,995.01
2022-11-25T12:27:29.693Z,995.05
2022-11-25T12:28:29.663Z,995.14
2022-11-25T12:30:33.750Z,995.12
2022-11-25T12:31:33.660Z,995.16
2022-11-25T12:33:38.075Z,995.16
2022-11-25T12:34:38.304Z,995.13
2022-11-25T12:36:41.990Z,995.10
2022-11-25T12:37:41.968Z,995.14
2022-11-25T12:39:45.955Z,995.19
2022-11-25T12:40:45.896Z,995.15
2022-11-25T12:42:38.779Z,995.14
2022-11-25T12:43:38.738Z,995.15
2022-11-25T12:45:43.700Z,995.10
2022-11-25T12:46:42.674Z,995.07
2022-11-25T12:48:46.671Z,995.19